Du har inga inställningar för hoppväder.nu

Hoppväder.nu

Senast uppdaterat 19:35

UTC-tid

2021-07-31 kl. 17:35


Sol och måne

Solen går upp 4:39 och går ner 22:21 (beräknade cirkatider)
Nästa fullmåne blir om 22 dagar (2021-08-22)

METAR

ESOW (Västerås)
(15 minuter sedan)
ESOW 311720Z AUTO 01005KT 9999 FEW120/// 17/15 Q0997=



ESSA (Arlanda)
(15 minuter sedan)
ESSA 311720Z 19008KT 9999 -SHRA FEW030 FEW049CB BKN050 17/14 Q0997 NOSIG=



ESKN (Skavsta)
(15 minuter sedan)
ESKN 311720Z 15007KT 120V180 CAVOK 18/14 Q0997=



ESOE (Örebro)
(15 minuter sedan)
ESOE 311720Z AUTO 27007KT 9999 RA FEW020/// SCT031/// BKN043/// 16/14 Q0997 REDZ=



ESSD (Borlänge)
(15 minuter sedan)
ESSD 311720Z AUTO 14004KT 9999 OVC066/// 17/15 Q0996=



TAF

ESOW (Västerås)
ESOW



ESSA (Arlanda)
(5 minuter sedan)
ESSA 311730Z 3118/0118 20008KT 9999 FEW040 TEMPO 3118/0107 SHRA BKN045CB PROB40 0101/0107 BKN006 BECMG 0107/0109 26010KT=



ESKN (Skavsta)
(5 minuter sedan)
ESKN 311730Z 3118/0118 20008KT CAVOK TEMPO 3118/3120 SHRA TS BKN045CB TEMPO 3120/3122 SHRA BKN045CB PROB40 0103/0107 BKN009 BECMG 0110/0112 26010KT=



ESOE (Örebro)
ESOE



ESSD (Borlänge)
ESSD





Kodnycklar till TAF och METAR






LHP

(Västerås är område se32e i Delområde 4)

Översikt

ÖVERSIKT FÖR OMRÅDE se3 UTFÄRDAD 311155

GÄLLANDE DEN 31 JULI 2021 MELLAN 12 OCH 20 UTC


Väderöversikt

Ostadigt med skurar.

Sikt under 5 kilometer eller molnbas under 1000 fot
12-20UTC: Hela området utom se33


Måttlig eller svår isbildning
Väntas inte förekomma under perioden

Måttlig eller svår turbulens
Väntas inte förekomma under perioden

Delområde 4

PROGNOS FÖR OMRÅDE se32 UTFÄRDAD 311155
GÄLLANDE DEN 31 JULI 2021 MELLAN 12 OCH 20 UTC

Måttlig eller svår turbulens
12-20UTC: I hela området: Väntas inte förekomma under perioden

Måttlig eller svår isbildning
12-20UTC: I hela området: Väntas inte förekomma under perioden

Sikt/Väder/Moln
12-14UTC: Område se32b,se32g: Sikt 3km - >8km i regnskurar. Molnbas 500ft - >2000ft.
Område se32d,se32h,se32i: Sikt >8km, lokalt 3km - 5km i regnskurar. Molnbas >2000ft, lokalt 500ft - 1000ft.
Område se32c,se32e,se32j: Sikt 3km - >8km i regnskurar, åska. Molnbas 500ft - >2000ft.

12-16UTC: Område se32a,se32f: Sikt 5km - >8km i regnskurar, åska. Molnbas 1000ft - >2000ft.

14-16UTC: Område se32c: Sikt 3km - >8km i regnskurar, åska. Molnbas 1000ft - >2000ft.
Område se32b,se32g,se32e: Sikt 3km - >8km i regnskurar. Molnbas 1000ft - >2000ft.

14-20UTC: Område se32d,se32h: Sikt >8km, lokalt 3km - 5km i regnskurar. Molnbas >2000ft, lokalt 1000ft - 1500ft.
Område se32j,se32i: Sikt 3km - >8km i regnskurar, åska. Molnbas 1000ft - >2000ft.

16-20UTC: Område se32b: Sikt 3km - >8km i regnskurar, åska. Molnbas 1000ft - >2000ft.
Område se32g,se32e: Sikt >8km, lokalt 3km - 5km i regnskurar. Molnbas >2000ft, lokalt 1000ft - 1500ft.
Område se32a,se32f: Sikt 3km - >8km i regnskurar. Molnbas 1000ft - >2000ft.
Område se32c: Sikt >8km, lokalt 5km - 8km i regnskurar, åska. Molnbas >2000ft, lokalt 1000ft - 1500ft.


Molnöversida
12-20UTC: I hela området: Molnöversida > FL125.

CB/TCU Moln
12-14UTC: Område se32e: ISOL CB, ISOL EMBD CB

12-16UTC: Område se32a,se32f: ISOL CB

12-20UTC: Område se32d,se32c,se32b,se32h,se32g,se32j,se32i: ISOL EMBD CB

14-20UTC: Område se32e: ISOL EMBD CB

16-20UTC: Område se32a,se32f: ISOL EMBD CB


Nollgradersisoterm
12-14UTC: Noll grader FL090 - FL100.
14-20UTC: Noll grader FL085 - FL095.

Vind vid marken
12-14UTC: Område se32b: S-SV/3-16 knop, byar upp till 24 knop.
Område se32g: S-SV/4-9 knop, byar upp till 18 knop.
Område se32a: SV/3-18 knop, byar upp till 22 knop.
Område se32e: S-SV/1-10 knop, byar upp till 18 knop.
Område se32d: S-SV/2-14 knop, byar upp till 22 knop.
Område se32c: S/3-18 knop, byar upp till 22 knop.
Område se32i: SV/4-12 knop, byar upp till 19 knop.
Område se32h: S-SV/3-14 knop, byar upp till 19 knop.
Område se32f: SV/4-9 knop, byar upp till 19 knop.
Område se32j: S-SV/2-15 knop, byar upp till 26 knop.

14-16UTC: Område se32f: S-SV/3-8 knop, byar upp till 15 knop.
Område se32e: S-SV/2-10 knop, byar upp till 19 knop.
Område se32c: S/2-25 knop, byar upp till 31 knop.
Område se32a: SV/2-17 knop, byar upp till 22 knop.
Område se32b: S/1-22 knop, byar upp till 30 knop.
Område se32i: S-SV/0-19 knop, byar upp till 31 knop.
Område se32d: S-SV/2-12 knop, byar upp till 19 knop.
Område se32j: S-SV/0-17 knop, byar upp till 30 knop.
Område se32h: S-SV/0-9 knop, byar upp till 20 knop.
Område se32g: S-SV/2-9 knop, byar upp till 19 knop.

16-18UTC: Område se32i: S-SV/0-12 knop, byar upp till 29 knop.
Område se32e: S/0-14 knop, byar upp till 20 knop.
Område se32c: S-SV/1-25 knop, byar upp till 35 knop.
Område se32g: S/0-13 knop, byar upp till 33 knop.
Område se32j: S-SV/0-12 knop, byar upp till 28 knop.
Område se32f: S/3-11 knop, byar upp till 19 knop.
Område se32b: S/0-22 knop, byar upp till 27 knop.
Område se32d: S/0-9 knop, byar upp till 15 knop.
Område se32h: S/0-11 knop, byar upp till 33 knop.
Område se32a: S-SV/3-19 knop, byar upp till 25 knop.

18-20UTC: Område se32c: SV/2-16 knop, byar upp till 25 knop.
Område se32b: SV/0-21 knop, byar upp till 30 knop.
Område se32i: S/0-13 knop, byar upp till 21 knop.
Område se32f: S/0-7 knop, byar upp till 19 knop.
Område se32d: SO-S/0-12 knop, byar upp till 20 knop.
Område se32g: SO-S/0-10 knop, byar upp till 22 knop.
Område se32e: SO-S/0-16 knop, byar upp till 25 knop.
Område se32h: S/0-10 knop, byar upp till 20 knop.
Område se32j: S-SV/1-17 knop, byar upp till 22 knop.
Område se32a: S-SV/0-21 knop, byar upp till 29 knop.


Genomsnittlig vind och temperatur för området
2000ft:
12-14UTC: 220/12kt +13.
14-16UTC: 210/13kt +13.
16-18UTC: 210/15kt +13.
18-20UTC: 220/16kt +13.

FL50:
12-14UTC: 230/16kt +6.
14-16UTC: 220/16kt +6.
16-18UTC: 220/15kt +6.
18-20UTC: 220/12kt +6.

FL100:
12-16UTC: 210/17kt -2.
16-18UTC: 210/15kt -2.
18-20UTC: 200/13kt -2.

Lägsta QNH
995 hPa.

OBS! endast utbredd måttlig eller svår isbildning och turbulens prognostiseras i LLF.
Avsaknad av isbildning och turbulens i prognosen utesluter inte förekomst av lätt isbildning och turbulens.
För indikation på lätt isbildning, var vänlig kontrollera om prognosen för molntopp ligger högre än nollgradersisotermen.
Förekomst av TCU eller CB medför alltid en risk för måttlig eller svår isbildning och turbulens även om det inte framgår explicit av prognosen.





Spotting

Hur fungerar spotthjälpen och Vindkartan?

Markvind är ca 0-7 m/s med byar på 10 m/s.
Vind på 600 m ca 8 m/s.
Vind på 1500 m ca 8 m/s.
Vind på 3000 m ca 8 m/s.
Zäta Yngve flyger ca 33 m/s över marken på finalen.
Du driver ca 347 m bakåt i frifall. (463 m)
Lämplig spot är 2 sekunder eller 67 m efter gropen.
(5 s eller 167 m)
För små grupper eller ensamhoppare bör man vänta 4-6 sekunder mellan grupperna.
För större grupper bör man vänta 9-11 sekunder mellan grupperna.


Vindkartan

Senast uppdaterad 19:35




All data kommer från LFV.se